createdAt,value
2023-05-15T00:00:10.793Z,10.76
2023-05-15T00:02:45.977Z,10.34
2023-05-15T00:05:14.933Z,10.50
2023-05-15T00:07:43.905Z,10.33
2023-05-15T00:10:12.765Z,10.12
2023-05-15T00:12:41.739Z,10.41
2023-05-15T00:15:12.413Z,10.41
2023-05-15T00:17:41.676Z,10.31
2023-05-15T00:20:11.588Z,10.36
2023-05-15T00:22:40.659Z,10.58
2023-05-15T00:25:10.485Z,10.79
2023-05-15T00:27:39.296Z,10.97
2023-05-15T00:30:09.460Z,10.97
2023-05-15T00:32:39.859Z,10.75
2023-05-15T00:35:09.270Z,10.56
2023-05-15T00:37:38.132Z,10.42
2023-05-15T00:40:08.763Z,10.29
2023-05-15T00:42:37.863Z,9.77
2023-05-15T00:45:09.888Z,10.05
2023-05-15T00:47:41.962Z,10.31
2023-05-15T00:50:11.882Z,10.37
2023-05-15T00:52:40.702Z,10.28
2023-05-15T00:55:10.539Z,10.32
2023-05-15T00:57:41.191Z,9.94
2023-05-15T01:00:11.028Z,10.16
2023-05-15T01:02:41.375Z,10.19
2023-05-15T01:05:10.829Z,10.66
2023-05-15T01:07:49.621Z,10.13
2023-05-15T01:10:20.746Z,10.42
2023-05-15T01:12:54.351Z,10.59
2023-05-15T01:15:23.369Z,10.10
2023-05-15T01:17:53.742Z,-145.44
2023-05-15T01:20:24.636Z,-145.44
2023-05-15T01:23:02.097Z,-145.44
2023-05-15T01:26:09.409Z,-145.44
2023-05-15T01:28:43.610Z,-145.44
2023-05-15T01:31:17.692Z,-145.44
2023-05-15T01:33:52.121Z,-145.44
2023-05-15T01:36:27.650Z,-145.44
2023-05-15T01:39:00.995Z,-145.44
2023-05-15T01:41:33.386Z,-145.44
2023-05-15T01:44:08.937Z,-145.44
2023-05-15T01:46:40.437Z,-145.44
2023-05-15T01:49:12.342Z,-145.44
2023-05-15T01:51:44.060Z,-145.44
2023-05-15T01:54:14.659Z,-145.44
2023-05-15T01:56:45.369Z,-145.44
2023-05-15T01:59:17.826Z,-145.44
2023-05-15T02:01:47.405Z,-145.44
2023-05-15T02:04:17.337Z,-145.44
2023-05-15T02:06:47.545Z,-145.44
2023-05-15T02:09:16.655Z,-145.44
2023-05-15T02:11:45.930Z,-145.44
2023-05-15T02:14:17.430Z,-145.44
2023-05-15T02:16:46.592Z,-145.44
2023-05-15T02:19:15.637Z,-145.44
2023-05-15T02:21:44.578Z,-145.44
2023-05-15T02:24:15.243Z,-145.44
2023-05-15T02:26:54.955Z,-145.44
2023-05-15T02:29:35.697Z,-145.44
2023-05-15T02:32:12.961Z,-145.44
2023-05-15T02:34:49.581Z,-145.44
2023-05-15T02:37:28.453Z,-145.44
2023-05-15T02:39:59.797Z,-145.44
2023-05-15T02:42:31.100Z,-145.44
2023-05-15T02:45:03.273Z,-145.44
2023-05-15T02:47:34.566Z,-145.44
2023-05-15T02:50:04.251Z,-145.44
2023-05-15T02:52:35.311Z,-145.44
2023-05-15T02:55:04.399Z,-145.44
2023-05-15T02:57:33.889Z,-145.44
2023-05-15T03:00:06.458Z,-145.44
2023-05-15T03:02:35.551Z,-145.44
2023-05-15T03:05:04.552Z,-145.44
2023-05-15T03:07:33.362Z,-145.44
2023-05-15T03:10:02.246Z,-145.44
2023-05-15T03:12:31.067Z,-145.44
2023-05-15T03:15:00.162Z,-145.44
2023-05-15T03:17:31.005Z,-145.44
2023-05-15T03:20:00.218Z,-145.44
2023-05-15T03:22:29.094Z,-145.44
2023-05-15T03:24:57.953Z,-145.44
2023-05-15T03:27:26.961Z,-145.44
2023-05-15T03:29:55.791Z,-145.44
2023-05-15T03:32:24.680Z,-145.44
2023-05-15T03:34:54.915Z,-145.44
2023-05-15T03:37:23.893Z,-145.44
2023-05-15T03:39:52.722Z,-145.44
2023-05-15T03:42:23.691Z,-145.44
2023-05-15T03:44:52.636Z,-145.44
2023-05-15T03:47:21.527Z,-145.44
2023-05-15T03:49:55.333Z,-145.44
2023-05-15T03:52:24.218Z,-145.44
2023-05-15T03:54:53.167Z,-145.44
2023-05-15T03:57:22.054Z,-145.44
2023-05-15T03:59:50.924Z,-145.44
2023-05-15T04:02:19.841Z,-145.44
2023-05-15T04:04:48.895Z,-145.44
2023-05-15T04:07:19.293Z,-145.44
2023-05-15T04:09:48.205Z,-145.44
2023-05-15T04:12:17.013Z,-145.44
2023-05-15T04:14:45.809Z,-145.44
2023-05-15T04:17:14.699Z,-145.44
2023-05-15T04:19:43.529Z,-145.44
2023-05-15T04:22:12.498Z,-145.44
2023-05-15T04:24:42.727Z,-145.44
2023-05-15T04:27:11.609Z,-145.44
2023-05-15T04:29:40.633Z,-145.44
2023-05-15T04:32:09.562Z,-145.44
2023-05-15T04:34:38.437Z,-145.44
2023-05-15T04:37:07.379Z,-145.44
2023-05-15T04:39:36.228Z,-145.44
2023-05-15T04:42:07.256Z,-145.44
2023-05-15T04:44:36.092Z,-145.44
2023-05-15T04:47:05.288Z,-145.44
2023-05-15T04:49:34.130Z,-145.44
2023-05-15T04:52:04.193Z,-145.44
2023-05-15T04:54:33.055Z,-145.44
2023-05-15T04:57:02.098Z,-145.44
2023-05-15T04:59:32.340Z,-145.44
2023-05-15T05:02:01.421Z,-145.44
2023-05-15T05:04:30.385Z,-145.44
2023-05-15T05:06:59.192Z,-145.44
2023-05-15T05:09:28.032Z,-145.44
2023-05-15T05:11:56.926Z,-145.44
2023-05-15T05:14:25.908Z,-145.44
2023-05-15T05:16:56.223Z,-145.44
2023-05-15T05:19:26.086Z,-145.44
2023-05-15T05:21:54.956Z,-145.44
2023-05-15T05:24:23.897Z,-145.44
2023-05-15T05:26:52.770Z,-145.44
2023-05-15T05:29:21.697Z,-145.44
2023-05-15T05:31:50.666Z,-145.44
2023-05-15T05:34:21.795Z,-145.44
2023-05-15T05:36:51.505Z,-145.44
2023-05-15T05:39:20.428Z,-145.44
2023-05-15T05:41:49.323Z,-145.44
2023-05-15T05:44:18.188Z,-145.44
2023-05-15T05:46:47.488Z,-145.44
2023-05-15T05:49:16.379Z,-145.44
2023-05-15T05:51:47.781Z,-145.44
2023-05-15T05:54:18.271Z,-145.44
2023-05-15T05:56:47.244Z,-145.44
2023-05-15T05:59:16.171Z,-145.44
2023-05-15T06:01:45.621Z,-145.44
2023-05-15T06:04:17.598Z,-145.44
2023-05-15T06:06:50.211Z,-145.44
2023-05-15T06:09:19.221Z,-145.44
2023-05-15T06:11:48.031Z,-145.44
2023-05-15T06:14:17.017Z,-145.44
2023-05-15T06:16:45.908Z,-145.44
2023-05-15T06:19:15.048Z,-145.44
2023-05-15T06:21:44.056Z,-145.44
2023-05-15T06:24:14.298Z,-145.44
2023-05-15T06:26:43.242Z,-145.44
2023-05-15T06:29:12.069Z,-145.44
2023-05-15T06:31:41.334Z,-145.44
2023-05-15T06:34:10.219Z,-145.44
2023-05-15T06:36:39.053Z,-145.44
2023-05-15T06:39:10.732Z,-145.44
2023-05-15T06:41:41.031Z,-145.44
2023-05-15T06:44:14.323Z,-145.44
2023-05-15T06:46:43.241Z,-145.44
2023-05-15T06:49:12.260Z,-145.44
2023-05-15T06:51:41.124Z,-145.44
2023-05-15T06:54:09.976Z,-145.44
2023-05-15T06:56:40.143Z,-145.44
2023-05-15T06:59:09.041Z,-145.44
2023-05-15T07:01:38.462Z,-145.44
2023-05-15T07:04:07.854Z,-145.44
2023-05-15T07:06:37.708Z,-145.44
2023-05-15T07:09:07.840Z,-145.44
2023-05-15T07:11:38.929Z,-145.44
2023-05-15T07:14:09.296Z,-145.44
2023-05-15T07:16:38.244Z,-145.44
2023-05-15T07:19:07.081Z,-145.44
2023-05-15T07:21:35.940Z,-145.44
2023-05-15T07:24:05.071Z,-145.44
2023-05-15T07:26:43.538Z,-145.44
2023-05-15T07:29:20.777Z,-145.44
2023-05-15T07:31:49.722Z,-145.44
2023-05-15T07:34:18.609Z,-145.44
2023-05-15T07:36:47.463Z,-145.44
2023-05-15T07:39:16.384Z,-145.44
2023-05-15T07:41:47.076Z,-145.44
2023-05-15T07:44:15.945Z,-145.44
2023-05-15T07:46:46.737Z,-145.44
2023-05-15T07:49:15.718Z,-145.44
2023-05-15T07:51:44.610Z,-145.44
2023-05-15T07:54:13.522Z,-145.44
2023-05-15T07:56:42.712Z,-145.44
2023-05-15T07:59:11.643Z,-145.44
2023-05-15T08:01:40.518Z,-145.44
2023-05-15T08:04:10.870Z,-145.44
2023-05-15T08:06:39.877Z,-145.44
2023-05-15T08:09:09.272Z,-145.44
2023-05-15T08:11:38.087Z,-145.44
2023-05-15T08:14:07.211Z,-145.44
2023-05-15T08:16:36.187Z,-145.44
2023-05-15T08:19:07.705Z,-145.44
2023-05-15T08:21:38.280Z,-145.44
2023-05-15T08:24:07.722Z,-145.44
2023-05-15T08:26:36.633Z,-145.44
2023-05-15T08:29:05.501Z,-145.44
2023-05-15T08:31:34.431Z,-145.44
2023-05-15T08:34:03.747Z,-145.44
2023-05-15T08:36:32.625Z,-145.44
2023-05-15T08:39:02.897Z,-145.44
2023-05-15T08:44:10.713Z,-145.44
2023-05-15T08:46:40.029Z,-145.44
2023-05-15T08:49:15.700Z,-145.44
2023-05-15T08:51:44.772Z,-145.44
2023-05-15T08:54:16.230Z,-145.44
2023-05-15T08:56:45.326Z,-145.44
2023-05-15T08:59:14.222Z,-145.44
2023-05-15T09:01:43.916Z,-145.44
2023-05-15T09:04:13.164Z,-145.44
2023-05-15T09:06:42.823Z,-145.44
2023-05-15T09:09:13.586Z,-145.44
2023-05-15T09:11:46.597Z,-145.44
2023-05-15T09:14:15.621Z,-145.44
2023-05-15T09:16:46.870Z,-145.44
2023-05-15T09:19:17.087Z,-145.44
2023-05-15T09:21:46.070Z,-145.44
2023-05-15T09:24:19.905Z,-145.44
2023-05-15T09:27:03.916Z,-145.44
2023-05-15T09:29:34.486Z,-145.44
2023-05-15T09:32:04.890Z,-145.44
2023-05-15T09:34:34.951Z,-145.44
2023-05-15T09:37:05.812Z,-145.44
2023-05-15T09:39:35.135Z,-145.44
2023-05-15T09:42:10.476Z,-145.44
2023-05-15T09:44:43.754Z,-145.44
2023-05-15T09:47:14.438Z,-145.44
2023-05-15T09:49:45.639Z,-145.44
2023-05-15T09:52:17.248Z,-145.44
2023-05-15T09:54:50.286Z,-145.44
2023-05-15T09:57:23.431Z,-145.44
2023-05-15T09:59:52.404Z,-145.44
2023-05-15T10:02:25.169Z,-145.44
2023-05-15T10:04:58.753Z,-145.44
2023-05-15T10:07:31.662Z,-145.44
2023-05-15T10:10:01.222Z,-145.44
2023-05-15T10:12:33.292Z,-145.44
2023-05-15T10:15:03.994Z,-145.44
2023-05-15T10:17:36.555Z,-145.44
2023-05-15T10:20:08.189Z,-145.44
2023-05-15T10:22:39.673Z,-145.44
2023-05-15T10:25:17.150Z,-145.44
2023-05-15T10:27:48.824Z,-145.44
2023-05-15T10:30:18.110Z,-145.44
2023-05-15T10:32:47.317Z,-145.44
2023-05-15T10:35:16.788Z,-145.44
2023-05-15T10:37:48.133Z,-145.44
2023-05-15T10:40:18.484Z,-145.44
2023-05-15T10:42:48.786Z,-145.44
2023-05-15T10:45:18.502Z,-145.44
2023-05-15T10:47:48.219Z,-145.44
2023-05-15T10:50:17.270Z,-145.44
2023-05-15T10:52:46.170Z,-145.44
2023-05-15T10:55:18.182Z,-145.44
2023-05-15T10:57:49.102Z,-145.44
2023-05-15T11:00:29.098Z,-145.44
2023-05-15T11:02:59.320Z,-145.44
2023-05-15T11:05:28.377Z,-145.44
2023-05-15T11:08:26.103Z,-145.44
2023-05-15T11:10:55.499Z,-145.44
2023-05-15T11:13:25.770Z,-145.44
2023-05-15T11:15:55.076Z,-145.44
2023-05-15T11:18:23.947Z,-145.44
2023-05-15T11:21:10.919Z,-145.44
2023-05-15T11:23:42.031Z,-145.44
2023-05-15T11:26:10.934Z,-145.44
2023-05-15T11:28:47.998Z,-145.44
2023-05-15T11:31:16.909Z,-145.44
2023-05-15T11:33:52.431Z,-145.44
2023-05-15T11:36:25.378Z,-145.44
2023-05-15T11:38:54.208Z,-145.44
2023-05-15T11:41:27.679Z,-145.44
2023-05-15T11:43:58.668Z,-145.44
2023-05-15T11:46:28.380Z,-145.44
2023-05-15T11:48:59.459Z,-145.44
2023-05-15T11:51:30.203Z,-145.44
2023-05-15T11:53:59.546Z,-145.44
2023-05-15T11:56:29.312Z,-145.44
2023-05-15T11:59:01.293Z,-145.44
2023-05-15T12:01:40.566Z,-145.44
2023-05-15T12:04:19.785Z,-145.44
2023-05-15T12:06:49.662Z,-145.44
2023-05-15T12:09:19.291Z,-145.44
2023-05-15T12:11:52.945Z,-145.44
2023-05-15T12:14:29.662Z,-145.44
2023-05-15T12:17:03.166Z,-145.44
2023-05-15T12:19:32.307Z,-145.44
2023-05-15T12:22:01.317Z,-145.44
2023-05-15T12:24:30.729Z,-145.44
2023-05-15T12:26:59.837Z,-145.44
2023-05-15T12:29:30.819Z,-145.44
2023-05-15T12:31:59.997Z,-145.44
2023-05-15T12:34:29.675Z,-145.44
2023-05-15T12:36:59.863Z,-145.44
2023-05-15T12:39:28.740Z,-145.44
2023-05-15T12:41:59.448Z,-145.44
2023-05-15T12:44:29.789Z,-145.44
2023-05-15T12:46:58.714Z,-145.44
2023-05-15T12:49:28.811Z,-145.44
2023-05-15T12:51:57.641Z,-145.44
2023-05-15T12:54:26.701Z,-145.44
2023-05-15T12:56:57.736Z,-145.44
2023-05-15T12:59:27.010Z,-145.44
2023-05-15T13:01:57.399Z,-145.44
2023-05-15T13:04:26.496Z,-145.44
2023-05-15T13:06:56.010Z,-145.44
2023-05-15T13:09:26.457Z,-145.44
2023-05-15T13:11:56.536Z,-145.44
2023-05-15T13:14:29.002Z,-145.44
2023-05-15T13:17:02.380Z,-145.44
2023-05-15T13:19:31.363Z,-145.44
2023-05-15T13:22:01.697Z,-145.44
2023-05-15T13:24:31.438Z,-145.44
2023-05-15T13:27:00.306Z,-145.44
2023-05-15T13:29:29.601Z,-145.44
2023-05-15T13:31:59.947Z,-145.44
2023-05-15T13:34:29.653Z,-145.44
2023-05-15T13:36:58.473Z,-145.44
2023-05-15T13:39:27.452Z,-145.44
2023-05-15T13:41:56.245Z,-145.44
2023-05-15T13:44:25.140Z,-145.44
2023-05-15T13:46:54.462Z,-145.44
2023-05-15T13:49:25.838Z,-145.44
2023-05-15T13:51:54.731Z,-145.44
2023-05-15T13:54:23.640Z,-145.44
2023-05-15T13:56:52.548Z,-145.44
2023-05-15T13:59:21.320Z,-145.44
2023-05-15T14:01:50.394Z,-145.44
2023-05-15T14:04:20.553Z,-145.44
2023-05-15T14:06:51.111Z,-145.44
2023-05-15T14:09:19.949Z,-145.44
2023-05-15T14:11:48.810Z,-145.44
2023-05-15T14:14:17.681Z,-145.44
2023-05-15T14:16:46.821Z,-145.44
2023-05-15T14:19:16.636Z,-145.44
2023-05-15T14:21:45.560Z,-145.44
2023-05-15T14:24:16.008Z,-145.44
2023-05-15T14:26:45.328Z,-145.44
2023-05-15T14:29:14.399Z,-145.44
2023-05-15T14:31:43.318Z,-145.44
2023-05-15T14:34:12.201Z,-145.44
2023-05-15T14:36:41.369Z,-145.44
2023-05-15T14:39:10.309Z,-145.44
2023-05-15T14:41:40.539Z,-145.44
2023-05-15T14:44:09.463Z,-145.44
2023-05-15T14:46:38.704Z,-145.44
2023-05-15T14:49:07.571Z,-145.44
2023-05-15T14:51:36.573Z,-145.44
2023-05-15T14:54:05.609Z,-145.44
2023-05-15T14:56:34.676Z,-145.44
2023-05-15T14:59:04.893Z,-145.44
2023-05-15T15:01:33.714Z,-145.44
2023-05-15T15:04:02.903Z,-145.44
2023-05-15T15:06:31.877Z,-145.44
2023-05-15T15:09:00.691Z,-145.44
2023-05-15T15:11:29.556Z,-145.44
2023-05-15T15:13:58.381Z,-145.44
2023-05-15T15:16:28.720Z,-145.44
2023-05-15T15:18:57.645Z,-145.44
2023-05-15T15:21:26.674Z,-145.44
2023-05-15T15:23:56.442Z,-145.44
2023-05-15T15:26:25.320Z,-145.44
2023-05-15T15:28:55.331Z,-145.44
2023-05-15T15:31:24.247Z,-145.44
2023-05-15T15:33:54.511Z,-145.44
2023-05-15T15:36:23.397Z,-145.44
2023-05-15T15:38:52.342Z,-145.44
2023-05-15T15:41:23.540Z,-145.44
2023-05-15T15:43:52.560Z,-145.44
2023-05-15T15:46:21.479Z,-145.44
2023-05-15T15:48:50.352Z,-145.44
2023-05-15T15:51:21.029Z,-145.44
2023-05-15T15:53:49.795Z,-145.44
2023-05-15T15:56:18.773Z,-145.44
2023-05-15T15:58:47.663Z,-145.44
2023-05-15T16:01:16.699Z,-145.44
2023-05-15T16:03:45.901Z,-145.44
2023-05-15T16:06:14.902Z,-145.44
2023-05-15T16:08:45.190Z,-145.44
2023-05-15T16:11:14.038Z,-145.44
2023-05-15T16:13:42.948Z,-145.44
2023-05-15T16:16:11.829Z,-145.44
2023-05-15T16:18:40.721Z,-145.44
2023-05-15T16:21:10.105Z,-145.44
2023-05-15T16:23:40.476Z,-145.44
2023-05-15T16:26:11.116Z,-145.44
2023-05-15T16:28:40.199Z,-145.44
2023-05-15T16:31:09.606Z,-145.44
2023-05-15T16:33:38.482Z,-145.44
2023-05-15T16:36:07.526Z,-145.44
2023-05-15T16:38:36.313Z,-145.44
2023-05-15T16:41:05.491Z,-145.44
2023-05-15T16:43:36.242Z,-145.44
2023-05-15T16:46:05.382Z,-145.44
2023-05-15T16:48:34.461Z,-145.44
2023-05-15T16:51:03.667Z,-145.44
2023-05-15T16:53:32.566Z,-145.44
2023-05-15T16:56:01.539Z,-145.44
2023-05-15T16:58:30.546Z,-145.44
2023-05-15T17:01:01.322Z,-145.44
2023-05-15T17:03:30.284Z,-145.44
2023-05-15T17:06:00.140Z,-145.44
2023-05-15T17:08:28.980Z,-145.44
2023-05-15T17:10:57.903Z,-145.44
2023-05-15T17:13:27.767Z,-145.44
2023-05-15T17:15:56.823Z,-145.44
2023-05-15T17:18:27.194Z,-145.44
2023-05-15T17:20:56.060Z,-145.44
2023-05-15T17:23:24.955Z,-145.44
2023-05-15T17:25:53.751Z,-145.44
2023-05-15T17:28:22.562Z,-145.44
2023-05-15T17:30:51.802Z,-145.44
2023-05-15T17:33:20.618Z,-145.44
2023-05-15T17:35:50.911Z,-145.44
2023-05-15T17:38:19.802Z,-145.44
2023-05-15T17:40:49.649Z,-145.44
2023-05-15T17:43:18.446Z,-145.44
2023-05-15T17:45:47.521Z,-145.44
2023-05-15T17:48:16.453Z,-145.44
2023-05-15T17:50:45.261Z,-145.44
2023-05-15T17:53:15.611Z,-145.44
2023-05-15T17:55:44.655Z,-145.44
2023-05-15T17:58:14.558Z,-145.44
2023-05-15T18:00:44.121Z,-145.44
2023-05-15T18:03:13.063Z,-145.44
2023-05-15T18:05:41.996Z,-145.44
2023-05-15T18:08:10.936Z,-145.44
2023-05-15T18:10:41.214Z,-145.44
2023-05-15T18:13:10.044Z,-145.44
2023-05-15T18:15:38.922Z,-145.44
2023-05-15T18:18:07.849Z,-145.44
2023-05-15T18:20:36.694Z,-145.44
2023-05-15T18:23:05.571Z,-145.44
2023-05-15T18:25:36.857Z,-145.44
2023-05-15T18:28:07.314Z,-145.44
2023-05-15T18:30:36.205Z,-145.44
2023-05-15T18:33:05.254Z,-145.44
2023-05-15T18:35:34.229Z,-145.44
2023-05-15T18:38:03.746Z,-145.44
2023-05-15T18:40:32.663Z,-145.44
2023-05-15T18:43:02.105Z,-145.44
2023-05-15T18:45:32.841Z,-145.44
2023-05-15T18:48:09.554Z,-145.44
2023-05-15T18:50:38.502Z,-145.44
2023-05-15T18:53:07.332Z,-145.44
2023-05-15T18:55:36.199Z,-145.44
2023-05-15T18:58:05.039Z,-145.44
2023-05-15T19:00:38.638Z,-145.44
2023-05-15T19:03:10.029Z,-145.44
2023-05-15T19:05:38.976Z,-145.44
2023-05-15T19:08:08.125Z,-145.44
2023-05-15T19:10:36.979Z,-145.44
2023-05-15T19:13:05.849Z,-145.44
2023-05-15T19:15:36.121Z,-145.44
2023-05-15T19:18:05.272Z,-145.44
2023-05-15T19:20:35.384Z,-145.44
2023-05-15T19:23:04.231Z,-145.44
2023-05-15T19:25:33.078Z,-145.44
2023-05-15T19:28:01.991Z,-145.44
2023-05-15T19:30:30.945Z,-145.44
2023-05-15T19:33:01.181Z,-145.44
2023-05-15T19:35:30.055Z,-145.44
2023-05-15T19:37:58.867Z,-145.44
2023-05-15T19:40:27.960Z,-145.44
2023-05-15T19:42:56.930Z,-145.44
2023-05-15T19:45:25.901Z,-145.44
2023-05-15T19:47:54.807Z,-145.44
2023-05-15T19:50:25.368Z,-145.44
2023-05-15T19:52:54.326Z,-145.44
2023-05-15T19:55:23.287Z,-145.44
2023-05-15T19:57:56.986Z,-145.44
2023-05-15T20:00:26.481Z,-145.44
2023-05-15T20:02:55.666Z,-145.44
2023-05-15T20:05:25.942Z,-145.44
2023-05-15T20:07:54.747Z,-145.44
2023-05-15T20:10:23.995Z,-145.44
2023-05-15T20:12:53.017Z,-145.44
2023-05-15T20:15:21.860Z,-145.44
2023-05-15T20:17:50.778Z,-145.44
2023-05-15T20:20:19.577Z,-145.44
2023-05-15T20:22:50.038Z,-145.44
2023-05-15T20:25:18.891Z,-145.44
2023-05-15T20:27:47.783Z,-145.44
2023-05-15T20:30:16.953Z,-145.44
2023-05-15T20:32:46.507Z,-145.44
2023-05-15T20:35:15.976Z,-145.44
2023-05-15T20:37:45.485Z,-145.44
2023-05-15T20:40:16.398Z,-145.44
2023-05-15T20:42:45.201Z,-145.44
2023-05-15T20:45:14.646Z,-145.44
2023-05-15T20:47:43.495Z,-145.44
2023-05-15T20:50:12.696Z,-145.44
2023-05-15T20:52:41.721Z,-145.44
2023-05-15T20:55:16.332Z,-145.44
2023-05-15T20:57:45.687Z,-145.44
2023-05-15T21:00:16.845Z,-145.44
2023-05-15T21:02:47.369Z,-145.44
2023-05-15T21:05:16.368Z,-145.44
2023-05-15T21:07:45.485Z,-145.44
2023-05-15T21:10:15.846Z,-145.44
2023-05-15T21:12:44.873Z,-145.44
2023-05-15T21:15:13.889Z,-145.44
2023-05-15T21:17:43.148Z,-145.44
2023-05-15T21:20:12.853Z,-145.44
2023-05-15T21:22:41.906Z,-145.44
2023-05-15T21:25:12.333Z,-145.44
2023-05-15T21:27:42.578Z,-145.44
2023-05-15T21:30:12.666Z,-145.44
2023-05-15T21:32:41.536Z,-145.44
2023-05-15T21:35:10.955Z,-145.44
2023-05-15T21:37:39.837Z,-145.44
2023-05-15T21:40:09.986Z,-145.44
2023-05-15T21:42:38.988Z,-145.44
2023-05-15T21:45:11.342Z,-145.44
2023-05-15T21:47:40.310Z,-145.44
2023-05-15T21:50:09.487Z,-145.44
2023-05-15T21:52:38.383Z,-145.44
2023-05-15T21:55:08.469Z,-145.44
2023-05-15T21:57:37.315Z,-145.44
2023-05-15T22:00:08.325Z,-145.44
2023-05-15T22:02:38.715Z,-145.44
2023-05-15T22:05:07.975Z,-145.44
2023-05-15T22:07:36.853Z,-145.44
2023-05-15T22:10:07.577Z,-145.44
2023-05-15T22:12:36.580Z,-145.44
2023-05-15T22:15:06.183Z,-145.44
2023-05-15T22:17:37.129Z,-145.44
2023-05-15T22:20:11.570Z,-145.44
2023-05-15T22:22:43.085Z,-145.44
2023-05-15T22:25:12.042Z,-145.44
2023-05-15T22:27:41.811Z,-145.44
2023-05-15T22:30:11.216Z,-145.44
2023-05-15T22:32:41.268Z,-145.44
2023-05-15T22:35:13.375Z,-145.44
2023-05-15T22:37:42.232Z,-145.44
2023-05-15T22:40:12.306Z,-145.44
2023-05-15T22:42:41.226Z,-145.44
2023-05-15T22:45:11.378Z,-145.44
2023-05-15T22:47:40.275Z,-145.44
2023-05-15T22:50:12.012Z,-145.44
2023-05-15T22:52:41.098Z,-145.44
2023-05-15T22:55:12.764Z,-145.44
2023-05-15T22:57:41.650Z,-145.44
2023-05-15T23:00:11.499Z,-145.44
2023-05-15T23:02:42.662Z,-145.44
2023-05-15T23:05:14.409Z,-145.44
2023-05-15T23:07:43.348Z,-145.44
2023-05-15T23:10:12.427Z,-145.44
2023-05-15T23:12:41.305Z,-145.44
2023-05-15T23:15:11.416Z,-145.44
2023-05-15T23:17:40.973Z,-145.44
2023-05-15T23:20:11.265Z,-145.44
2023-05-15T23:22:41.546Z,-145.44
2023-05-15T23:25:11.138Z,-145.44
2023-05-15T23:27:40.022Z,-145.44
2023-05-15T23:30:10.109Z,-145.44
2023-05-15T23:32:39.003Z,-145.44
2023-05-15T23:35:08.818Z,-145.44
2023-05-15T23:37:37.669Z,-145.44
2023-05-15T23:40:09.435Z,-145.44
2023-05-15T23:42:38.274Z,-145.44
2023-05-15T23:45:08.524Z,-145.44
2023-05-15T23:47:37.410Z,-145.44
2023-05-15T23:50:07.726Z,-145.44
2023-05-15T23:52:36.616Z,-145.44
2023-05-15T23:55:07.782Z,-145.44
2023-05-15T23:57:36.685Z,-145.44
